createdAt,value
2018-09-13T00:00:10.872Z,965.21
2018-09-13T00:01:10.810Z,965.23
2018-09-13T00:02:10.750Z,965.23
2018-09-13T00:03:10.691Z,965.27
2018-09-13T00:04:10.633Z,965.29
2018-09-13T00:05:10.570Z,965.30
2018-09-13T00:06:10.513Z,965.29
2018-09-13T00:07:10.451Z,965.26
2018-09-13T00:08:10.393Z,965.30
2018-09-13T00:09:10.330Z,965.27
2018-09-13T00:10:10.272Z,965.30
2018-09-13T00:11:10.217Z,965.23
2018-09-13T00:12:10.154Z,965.22
2018-09-13T00:13:10.094Z,965.20
2018-09-13T00:14:10.034Z,965.21
2018-09-13T00:15:09.975Z,965.19
2018-09-13T00:16:09.914Z,965.18
2018-09-13T00:17:09.855Z,965.13
2018-09-13T00:18:09.795Z,965.12
2018-09-13T00:19:09.735Z,965.09
2018-09-13T00:20:09.676Z,965.09
2018-09-13T00:21:09.617Z,965.06
2018-09-13T00:22:09.556Z,965.06
2018-09-13T00:23:09.495Z,965.07
2018-09-13T00:24:09.436Z,965.05
2018-09-13T00:25:09.377Z,965.05
2018-09-13T00:26:09.318Z,965.08
2018-09-13T00:27:09.261Z,965.07
2018-09-13T00:28:09.204Z,965.06
2018-09-13T00:29:09.139Z,965.03
2018-09-13T00:30:09.077Z,965.05
2018-09-13T00:31:09.016Z,965.04
2018-09-13T00:32:08.959Z,964.99
2018-09-13T00:33:08.917Z,964.99
2018-09-13T00:34:08.841Z,965.03
2018-09-13T00:35:08.781Z,964.96
2018-09-13T00:36:08.719Z,964.99
2018-09-13T00:37:08.673Z,965.00
2018-09-13T00:38:08.601Z,964.99
2018-09-13T00:39:08.541Z,964.97
2018-09-13T00:40:08.479Z,964.96
2018-09-13T00:41:08.420Z,964.96
2018-09-13T00:42:08.361Z,964.96
2018-09-13T00:43:08.300Z,964.94
2018-09-13T00:44:08.244Z,964.98
2018-09-13T00:45:08.181Z,964.95
2018-09-13T00:46:08.120Z,964.98
2018-09-13T00:47:08.062Z,964.95
2018-09-13T00:48:08.003Z,964.98
2018-09-13T00:49:07.943Z,964.94
2018-09-13T00:50:07.882Z,964.97
2018-09-13T00:51:07.823Z,964.94
2018-09-13T00:52:07.764Z,964.94
2018-09-13T00:53:07.703Z,964.95
2018-09-13T00:54:07.644Z,964.97
2018-09-13T00:55:07.583Z,964.97
2018-09-13T00:56:07.524Z,964.94
2018-09-13T00:57:07.463Z,965.00
2018-09-13T00:58:07.403Z,964.97
2018-09-13T00:59:07.346Z,964.95
2018-09-13T01:00:07.288Z,964.91
2018-09-13T01:01:07.219Z,964.93
2018-09-13T01:02:07.163Z,964.92
2018-09-13T01:03:07.106Z,964.92
2018-09-13T01:04:07.046Z,964.91
2018-09-13T01:05:06.988Z,964.88
2018-09-13T01:06:06.926Z,964.92
2018-09-13T01:07:06.862Z,964.89
2018-09-13T01:08:06.803Z,964.81
2018-09-13T01:09:06.749Z,964.82
2018-09-13T01:10:06.691Z,964.80
2018-09-13T01:11:06.632Z,964.75
2018-09-13T01:12:06.574Z,964.72
2018-09-13T01:13:06.509Z,964.64
2018-09-13T01:14:06.449Z,964.53
2018-09-13T01:15:06.390Z,964.52
2018-09-13T01:16:06.335Z,964.52
2018-09-13T01:17:06.272Z,964.49
2018-09-13T01:18:06.212Z,964.50
2018-09-13T01:19:06.150Z,964.50
2018-09-13T01:20:06.092Z,964.52
2018-09-13T01:21:06.031Z,964.54
2018-09-13T01:22:05.975Z,964.52
2018-09-13T01:23:05.909Z,964.51
2018-09-13T01:24:05.853Z,964.53
2018-09-13T01:25:05.789Z,964.55
2018-09-13T01:26:05.734Z,964.56
2018-09-13T01:27:05.674Z,964.55
2018-09-13T01:28:05.615Z,964.52
2018-09-13T01:29:05.555Z,964.47
2018-09-13T01:30:05.493Z,964.44
2018-09-13T01:31:05.436Z,964.43
2018-09-13T01:32:05.374Z,964.43
2018-09-13T01:33:05.315Z,964.38
2018-09-13T01:34:05.255Z,964.33
2018-09-13T01:35:05.197Z,964.28
2018-09-13T01:36:05.137Z,964.25
2018-09-13T01:37:05.078Z,964.25
2018-09-13T01:38:05.017Z,964.26
2018-09-13T01:39:04.957Z,964.22
2018-09-13T01:40:04.902Z,964.21
2018-09-13T01:41:04.837Z,964.16
2018-09-13T01:42:04.780Z,964.15
2018-09-13T01:43:04.719Z,964.17
2018-09-13T01:44:04.664Z,964.16
2018-09-13T01:45:04.597Z,964.15
2018-09-13T01:46:04.540Z,964.16
2018-09-13T01:47:04.481Z,964.18
2018-09-13T01:48:04.422Z,964.18
2018-09-13T01:49:04.363Z,964.19
2018-09-13T01:50:04.304Z,964.19
2018-09-13T01:51:04.242Z,964.19
2018-09-13T01:52:04.183Z,964.26
2018-09-13T01:53:04.123Z,964.26
2018-09-13T01:54:04.063Z,964.29
2018-09-13T01:55:04.003Z,964.28
2018-09-13T01:56:03.946Z,964.30
2018-09-13T01:57:03.881Z,964.33
2018-09-13T01:58:03.825Z,964.35
2018-09-13T01:59:03.782Z,964.34
2018-09-13T02:00:03.706Z,964.33
2018-09-13T02:01:03.648Z,964.35
2018-09-13T02:02:03.597Z,964.32
2018-09-13T02:03:03.530Z,964.34
2018-09-13T02:04:03.467Z,964.30
2018-09-13T02:05:03.408Z,964.29
2018-09-13T02:06:03.352Z,964.28
2018-09-13T02:07:03.291Z,964.25
2018-09-13T02:08:03.241Z,964.28
2018-09-13T02:09:03.185Z,964.26
2018-09-13T02:10:03.112Z,964.25
2018-09-13T02:11:03.050Z,964.23
2018-09-13T02:12:02.992Z,964.25
2018-09-13T02:13:02.949Z,964.28
2018-09-13T02:14:02.872Z,964.27
2018-09-13T02:15:02.814Z,964.29
2018-09-13T02:16:02.760Z,964.35
2018-09-13T02:17:02.695Z,964.40
2018-09-13T02:18:02.635Z,964.63
2018-09-13T02:19:02.572Z,964.99
2018-09-13T02:20:02.516Z,965.11
2018-09-13T02:21:02.459Z,965.04
2018-09-13T02:22:02.396Z,965.05
2018-09-13T02:23:02.338Z,965.09
2018-09-13T02:24:02.277Z,965.04
2018-09-13T02:25:02.231Z,964.92
2018-09-13T02:26:02.159Z,965.04
2018-09-13T02:27:02.099Z,965.24
2018-09-13T02:28:02.049Z,965.19
2018-09-13T02:29:01.980Z,965.21
2018-09-13T02:30:01.922Z,965.27
2018-09-13T02:31:01.857Z,965.25
2018-09-13T02:32:01.821Z,965.21
2018-09-13T02:33:01.749Z,965.17
2018-09-13T02:34:01.679Z,965.19
2018-09-13T02:35:01.626Z,965.14
2018-09-13T02:36:01.579Z,965.19
2018-09-13T02:37:01.509Z,965.16
2018-09-13T02:38:01.445Z,965.18
2018-09-13T02:39:01.384Z,965.13
2018-09-13T02:40:01.328Z,965.11
2018-09-13T02:41:01.267Z,965.09
2018-09-13T02:42:01.209Z,965.13
2018-09-13T02:43:01.150Z,965.05
2018-09-13T02:44:01.089Z,965.06
2018-09-13T02:45:01.027Z,965.13
2018-09-13T02:46:00.969Z,965.10
2018-09-13T02:47:00.907Z,965.12
2018-09-13T02:48:00.851Z,965.10
2018-09-13T02:49:00.799Z,965.11
2018-09-13T02:50:00.734Z,965.12
2018-09-13T02:51:00.673Z,965.12
2018-09-13T02:52:00.616Z,965.10
2018-09-13T02:53:00.551Z,965.07
2018-09-13T02:54:00.494Z,965.04
2018-09-13T02:55:00.439Z,965.06
2018-09-13T02:56:00.379Z,964.95
2018-09-13T02:57:00.318Z,965.04
2018-09-13T02:58:00.257Z,965.04
2018-09-13T02:59:00.198Z,965.04
2018-09-13T03:00:00.137Z,965.01
2018-09-13T03:01:00.095Z,964.99
2018-09-13T03:02:00.015Z,965.02
2018-09-13T03:02:59.960Z,964.97
2018-09-13T03:03:59.901Z,964.95
2018-09-13T03:04:59.839Z,964.97
2018-09-13T03:05:59.785Z,964.97
2018-09-13T03:06:59.725Z,964.93
2018-09-13T03:07:59.664Z,964.95
2018-09-13T03:08:59.603Z,964.94
2018-09-13T03:09:59.568Z,964.97
2018-09-13T03:10:59.485Z,964.98
2018-09-13T03:11:59.424Z,965.00
2018-09-13T03:12:59.365Z,964.94
2018-09-13T03:13:59.305Z,964.93
2018-09-13T03:14:59.247Z,964.97
2018-09-13T03:15:59.188Z,964.97
2018-09-13T03:16:59.128Z,964.96
2018-09-13T03:17:59.074Z,964.94
2018-09-13T03:18:59.010Z,964.95
2018-09-13T03:19:58.950Z,964.89
2018-09-13T03:20:58.889Z,964.94
2018-09-13T03:21:58.833Z,964.91
2018-09-13T03:22:58.772Z,964.92
2018-09-13T03:23:58.717Z,964.90
2018-09-13T03:24:58.653Z,964.88
2018-09-13T03:25:58.615Z,964.92
2018-09-13T03:26:58.536Z,964.89
2018-09-13T03:27:58.476Z,964.92
2018-09-13T03:28:58.416Z,964.93
2018-09-13T03:29:58.358Z,964.91
2018-09-13T03:30:58.303Z,964.91
2018-09-13T03:31:58.240Z,964.88
2018-09-13T03:32:58.180Z,964.89
2018-09-13T03:33:58.118Z,964.90
2018-09-13T03:34:58.060Z,964.88
2018-09-13T03:35:58.001Z,964.89
2018-09-13T03:36:57.940Z,964.87
2018-09-13T03:37:57.882Z,964.81
2018-09-13T03:38:57.824Z,964.83
2018-09-13T03:39:57.764Z,964.83
2018-09-13T03:40:57.703Z,964.82
2018-09-13T03:41:57.679Z,964.81
2018-09-13T03:42:57.595Z,964.78
2018-09-13T03:43:57.527Z,964.75
2018-09-13T03:44:57.466Z,964.77
2018-09-13T03:45:57.407Z,964.75
2018-09-13T03:46:57.347Z,964.76
2018-09-13T03:47:57.289Z,964.78
2018-09-13T03:48:57.230Z,964.69
2018-09-13T03:49:57.170Z,964.73
2018-09-13T03:50:57.109Z,964.69
2018-09-13T03:51:57.052Z,964.69
2018-09-13T03:52:56.989Z,964.70
2018-09-13T03:53:56.932Z,964.72
2018-09-13T03:54:56.875Z,964.72
2018-09-13T03:55:56.816Z,964.70
2018-09-13T03:56:56.754Z,964.69
2018-09-13T03:57:56.698Z,964.67
2018-09-13T03:58:56.638Z,964.71
2018-09-13T03:59:56.577Z,964.73
2018-09-13T04:00:56.540Z,964.70
2018-09-13T04:01:56.458Z,964.69
2018-09-13T04:02:56.399Z,964.63
2018-09-13T04:03:56.341Z,964.64
2018-09-13T04:04:56.283Z,964.65
2018-09-13T04:05:56.224Z,964.67
2018-09-13T04:06:56.165Z,964.62
2018-09-13T04:07:56.102Z,964.64
2018-09-13T04:08:56.042Z,964.59
2018-09-13T04:09:55.984Z,964.57
2018-09-13T04:10:55.931Z,964.58
2018-09-13T04:11:55.883Z,964.58
2018-09-13T04:12:55.807Z,964.58
2018-09-13T04:13:55.748Z,964.62
2018-09-13T04:14:55.688Z,964.59
2018-09-13T04:15:55.628Z,964.59
2018-09-13T04:16:55.571Z,964.53
2018-09-13T04:17:55.510Z,964.52
2018-09-13T04:18:55.510Z,964.55
2018-09-13T04:19:55.407Z,964.56
2018-09-13T04:20:55.365Z,964.53
2018-09-13T04:21:55.299Z,964.53
2018-09-13T04:22:55.215Z,964.50
2018-09-13T04:23:55.219Z,964.49
2018-09-13T04:24:55.104Z,964.49
2018-09-13T04:25:55.034Z,964.49
2018-09-13T04:26:54.972Z,964.46
2018-09-13T04:27:54.915Z,964.42
2018-09-13T04:28:54.895Z,964.42
2018-09-13T04:29:54.872Z,964.42
2018-09-13T04:30:54.823Z,964.40
2018-09-13T04:31:54.681Z,964.42
2018-09-13T04:32:54.718Z,964.38
2018-09-13T04:33:54.599Z,964.37
2018-09-13T04:34:54.513Z,964.36
2018-09-13T04:35:54.593Z,964.41
2018-09-13T04:36:54.432Z,964.43
2018-09-13T04:37:54.334Z,964.50
2018-09-13T04:38:54.264Z,964.50
2018-09-13T04:39:54.210Z,964.54
2018-09-13T04:40:54.144Z,964.53
2018-09-13T04:41:54.088Z,964.51
2018-09-13T04:42:54.026Z,964.53
2018-09-13T04:43:53.981Z,964.59
2018-09-13T04:44:53.908Z,964.65
2018-09-13T04:45:53.846Z,964.60
2018-09-13T04:46:53.791Z,964.63
2018-09-13T04:47:53.730Z,964.61
2018-09-13T04:48:53.673Z,964.65
2018-09-13T04:49:53.613Z,964.66
2018-09-13T04:50:53.553Z,964.64
2018-09-13T04:51:53.494Z,964.65
2018-09-13T04:52:53.436Z,964.62
2018-09-13T04:53:53.375Z,964.61
2018-09-13T04:54:53.316Z,964.64
2018-09-13T04:55:53.257Z,964.62
2018-09-13T04:56:53.200Z,964.62
2018-09-13T04:57:53.136Z,964.67
2018-09-13T04:58:53.078Z,964.66
2018-09-13T04:59:53.019Z,964.65
2018-09-13T05:00:52.974Z,964.67
2018-09-13T05:01:52.900Z,964.69
2018-09-13T05:02:52.844Z,964.67
2018-09-13T05:03:52.786Z,964.67
2018-09-13T05:04:52.723Z,964.68
2018-09-13T05:05:52.664Z,964.69
2018-09-13T05:06:52.605Z,964.71
2018-09-13T05:07:52.546Z,964.71
2018-09-13T05:08:52.485Z,964.72
2018-09-13T05:09:52.427Z,964.64
2018-09-13T05:10:52.367Z,964.73
2018-09-13T05:11:52.309Z,964.67
2018-09-13T05:12:52.355Z,964.73
2018-09-13T05:13:52.188Z,964.70
2018-09-13T05:14:52.134Z,964.71
2018-09-13T05:15:52.073Z,964.73
2018-09-13T05:16:52.012Z,964.71
2018-09-13T05:17:51.950Z,964.70
2018-09-13T05:18:51.894Z,964.70
2018-09-13T05:19:51.862Z,964.67
2018-09-13T05:20:51.775Z,964.69
2018-09-13T05:21:51.715Z,964.70
2018-09-13T05:22:51.719Z,964.73
2018-09-13T05:23:51.597Z,964.70
2018-09-13T05:24:51.538Z,964.74
2018-09-13T05:25:51.477Z,964.74
2018-09-13T05:26:51.420Z,964.75
2018-09-13T05:27:51.360Z,964.72
2018-09-13T05:28:51.299Z,964.74
2018-09-13T05:29:51.250Z,964.70
2018-09-13T05:30:51.183Z,964.73
2018-09-13T05:31:51.125Z,964.73
2018-09-13T05:32:51.066Z,964.72
2018-09-13T05:33:51.003Z,964.73
2018-09-13T05:34:50.943Z,964.77
2018-09-13T05:35:50.885Z,964.72
2018-09-13T05:36:50.829Z,964.73
2018-09-13T05:37:50.771Z,964.72
2018-09-13T05:38:50.733Z,964.75
2018-09-13T05:39:50.648Z,964.78
2018-09-13T05:40:50.588Z,964.79
2018-09-13T05:41:50.530Z,964.79
2018-09-13T05:42:50.479Z,964.83
2018-09-13T05:43:50.417Z,964.79
2018-09-13T05:44:50.354Z,964.85
2018-09-13T05:45:50.296Z,964.83
2018-09-13T05:46:50.232Z,964.80
2018-09-13T05:47:50.177Z,964.83
2018-09-13T05:48:50.115Z,964.81
2018-09-13T05:49:50.056Z,964.86
2018-09-13T05:50:49.998Z,964.88
2018-09-13T05:51:49.938Z,964.85
2018-09-13T05:52:49.878Z,964.84
2018-09-13T05:53:49.871Z,964.86
2018-09-13T05:54:49.769Z,964.85
2018-09-13T05:55:49.699Z,964.85
2018-09-13T05:56:49.640Z,964.82
2018-09-13T05:57:49.580Z,964.82
2018-09-13T05:58:49.522Z,964.84
2018-09-13T05:59:49.459Z,964.90
2018-09-13T06:00:49.405Z,964.88
2018-09-13T06:01:49.345Z,964.88
2018-09-13T06:02:49.285Z,964.89
2018-09-13T06:03:49.234Z,964.90
2018-09-13T06:04:49.167Z,964.92
2018-09-13T06:05:49.107Z,964.95
2018-09-13T06:06:49.048Z,965.02
2018-09-13T06:07:49.011Z,965.00
2018-09-13T06:08:48.938Z,965.01
2018-09-13T06:09:48.868Z,965.04
2018-09-13T06:10:48.810Z,965.01
2018-09-13T06:11:48.756Z,965.04
2018-09-13T06:12:48.693Z,965.05
2018-09-13T06:13:48.634Z,965.05
2018-09-13T06:14:48.575Z,965.04
2018-09-13T06:15:48.517Z,964.99
2018-09-13T06:16:48.454Z,965.02
2018-09-13T06:17:48.396Z,965.03
2018-09-13T06:18:48.346Z,965.03
2018-09-13T06:19:48.387Z,965.00
2018-09-13T06:20:48.222Z,965.07
2018-09-13T06:21:48.163Z,965.05
2018-09-13T06:22:48.102Z,965.05
2018-09-13T06:23:48.042Z,965.07
2018-09-13T06:24:47.982Z,965.09
2018-09-13T06:25:47.924Z,965.11
2018-09-13T06:26:47.865Z,965.11
2018-09-13T06:27:47.811Z,965.11
2018-09-13T06:28:47.748Z,965.10
2018-09-13T06:29:47.690Z,965.07
2018-09-13T06:30:47.630Z,965.09
2018-09-13T06:31:47.570Z,965.08
2018-09-13T06:32:47.513Z,965.08
2018-09-13T06:33:47.461Z,965.09
2018-09-13T06:34:47.393Z,965.11
2018-09-13T06:35:47.336Z,965.10
2018-09-13T06:36:47.275Z,965.05
2018-09-13T06:37:47.214Z,965.08
2018-09-13T06:38:47.155Z,965.07
2018-09-13T06:39:47.110Z,965.06
2018-09-13T06:40:47.038Z,965.07
2018-09-13T06:41:46.980Z,965.09
2018-09-13T06:42:46.920Z,965.09
2018-09-13T06:43:46.864Z,965.07
2018-09-13T06:44:46.802Z,965.07
2018-09-13T06:45:46.744Z,965.09
2018-09-13T06:46:46.685Z,965.00
2018-09-13T06:47:46.627Z,965.01
2018-09-13T06:48:46.564Z,965.00
2018-09-13T06:49:46.508Z,965.00
2018-09-13T06:50:46.449Z,964.97
2018-09-13T06:51:46.389Z,964.94
2018-09-13T06:52:46.337Z,964.96
2018-09-13T06:53:46.272Z,964.95
2018-09-13T06:54:46.216Z,964.95
2018-09-13T06:55:46.159Z,964.95
2018-09-13T06:56:46.098Z,964.93
2018-09-13T06:57:46.036Z,964.90
2018-09-13T06:58:45.979Z,964.88
2018-09-13T06:59:45.918Z,964.88
2018-09-13T07:00:45.860Z,964.92
2018-09-13T07:01:45.798Z,964.95
2018-09-13T07:02:45.740Z,964.95
2018-09-13T07:03:45.681Z,964.97
2018-09-13T07:04:45.623Z,964.95
2018-09-13T07:05:45.565Z,964.96
2018-09-13T07:06:45.507Z,964.98
2018-09-13T07:07:45.446Z,964.98
2018-09-13T07:08:45.387Z,965.05
2018-09-13T07:09:45.330Z,965.00
2018-09-13T07:10:45.271Z,965.03
2018-09-13T07:11:45.213Z,964.97
2018-09-13T07:12:45.150Z,965.03
2018-09-13T07:13:45.109Z,965.00
2018-09-13T07:14:45.040Z,965.01
2018-09-13T07:15:44.969Z,965.01
2018-09-13T07:16:44.924Z,964.95
2018-09-13T07:17:44.860Z,965.00
2018-09-13T07:18:44.798Z,964.97
2018-09-13T07:19:44.739Z,964.96
2018-09-13T07:20:44.688Z,965.02
2018-09-13T07:21:44.620Z,965.00
2018-09-13T07:22:44.563Z,964.96
2018-09-13T07:23:44.581Z,964.97
2018-09-13T07:24:44.447Z,964.97
2018-09-13T07:25:44.387Z,964.97
2018-09-13T07:26:44.331Z,965.00
2018-09-13T07:27:44.269Z,965.00
2018-09-13T07:28:44.210Z,965.01
2018-09-13T07:29:44.156Z,965.00
2018-09-13T07:30:44.110Z,965.00
2018-09-13T07:31:44.037Z,965.00
2018-09-13T07:32:43.976Z,965.04
2018-09-13T07:33:43.919Z,965.02
2018-09-13T07:34:43.861Z,965.01
2018-09-13T07:35:43.803Z,965.05
2018-09-13T07:36:43.797Z,965.07
2018-09-13T07:37:43.683Z,965.07
2018-09-13T07:38:43.627Z,965.03
2018-09-13T07:39:43.571Z,965.04
2018-09-13T07:40:43.508Z,965.06
2018-09-13T07:41:43.449Z,965.03
2018-09-13T07:42:43.510Z,965.05
2018-09-13T07:43:43.332Z,965.09
2018-09-13T07:44:43.274Z,965.06
2018-09-13T07:45:43.216Z,965.05
2018-09-13T07:46:43.159Z,965.06
2018-09-13T07:47:43.100Z,965.09
2018-09-13T07:48:43.042Z,965.07
2018-09-13T07:49:43.155Z,965.06
2018-09-13T07:50:42.925Z,965.07
2018-09-13T07:51:42.866Z,965.03
2018-09-13T07:52:42.810Z,965.02
2018-09-13T07:53:42.752Z,965.03
2018-09-13T07:54:42.691Z,965.03
2018-09-13T07:55:42.692Z,965.04
2018-09-13T07:56:42.573Z,965.05
2018-09-13T07:57:42.527Z,965.05
2018-09-13T07:58:42.459Z,965.04
2018-09-13T07:59:42.403Z,965.04
2018-09-13T08:00:42.341Z,965.06
2018-09-13T08:01:42.284Z,965.04
2018-09-13T08:02:42.224Z,965.07
2018-09-13T08:03:42.167Z,965.04
2018-09-13T08:04:42.117Z,965.03
2018-09-13T08:05:42.049Z,965.03
2018-09-13T08:06:41.993Z,965.04
2018-09-13T08:07:41.932Z,965.05
2018-09-13T08:08:41.874Z,965.05
2018-09-13T08:09:41.819Z,965.04
2018-09-13T08:10:41.760Z,965.04
2018-09-13T08:11:41.771Z,965.04
2018-09-13T08:12:41.642Z,965.03
2018-09-13T08:13:41.588Z,965.07
2018-09-13T08:14:41.527Z,965.06
2018-09-13T08:15:41.478Z,965.08
2018-09-13T08:16:41.409Z,965.06
2018-09-13T08:17:41.354Z,965.11
2018-09-13T08:18:41.295Z,965.13
2018-09-13T08:19:41.235Z,965.10
2018-09-13T08:20:41.174Z,965.12
2018-09-13T08:21:41.212Z,965.15
2018-09-13T08:22:41.066Z,965.11
2018-09-13T08:23:41.004Z,965.14
2018-09-13T08:24:40.946Z,965.20
2018-09-13T08:25:40.888Z,965.20
2018-09-13T08:26:40.831Z,965.20
2018-09-13T08:27:40.773Z,965.26
2018-09-13T08:28:40.714Z,965.28
2018-09-13T08:29:40.659Z,965.28
2018-09-13T08:30:40.599Z,965.28
2018-09-13T08:31:40.542Z,965.25
2018-09-13T08:32:40.483Z,965.29
2018-09-13T08:33:40.432Z,965.27
2018-09-13T08:34:40.454Z,965.24
2018-09-13T08:35:40.309Z,965.31
2018-09-13T08:36:40.254Z,965.29
2018-09-13T08:37:40.201Z,965.30
2018-09-13T08:38:40.131Z,965.29
2018-09-13T08:39:40.122Z,965.28
2018-09-13T08:40:40.021Z,965.20
2018-09-13T08:41:39.965Z,965.21
2018-09-13T08:42:39.904Z,965.18
2018-09-13T08:43:39.850Z,965.22
2018-09-13T08:44:39.788Z,965.17
2018-09-13T08:45:39.738Z,965.18
2018-09-13T08:46:39.672Z,965.19
2018-09-13T08:47:39.726Z,965.20
2018-09-13T08:48:39.571Z,965.20
2018-09-13T08:49:39.504Z,965.17
2018-09-13T08:50:39.444Z,965.15
2018-09-13T08:51:39.387Z,965.16
2018-09-13T08:52:39.331Z,965.17
2018-09-13T08:53:39.279Z,965.18
2018-09-13T08:54:39.215Z,965.15
2018-09-13T08:55:39.156Z,965.20
2018-09-13T08:56:39.096Z,965.17
2018-09-13T08:57:39.043Z,965.21
2018-09-13T08:58:38.982Z,965.21
2018-09-13T08:59:38.926Z,965.21
2018-09-13T09:00:38.891Z,965.22
2018-09-13T09:01:38.810Z,965.23
2018-09-13T09:02:38.752Z,965.21
2018-09-13T09:03:38.695Z,965.21
2018-09-13T09:04:38.638Z,965.16
2018-09-13T09:05:38.581Z,965.21
2018-09-13T09:06:38.523Z,965.19
2018-09-13T09:07:38.466Z,965.22
2018-09-13T09:08:38.409Z,965.16
2018-09-13T09:09:38.351Z,965.16
2018-09-13T09:10:38.292Z,965.18
2018-09-13T09:11:38.238Z,965.20
2018-09-13T09:12:38.178Z,965.17
2018-09-13T09:13:38.116Z,965.23
2018-09-13T09:14:38.070Z,965.17
2018-09-13T09:15:38.013Z,965.18
2018-09-13T09:16:37.952Z,965.13
2018-09-13T09:17:37.890Z,965.15
2018-09-13T09:18:37.905Z,965.11
2018-09-13T09:19:37.776Z,965.12
2018-09-13T09:20:37.718Z,965.12
2018-09-13T09:21:37.662Z,965.14
2018-09-13T09:22:37.605Z,965.11
2018-09-13T09:23:37.550Z,965.12
2018-09-13T09:24:37.492Z,965.12
2018-09-13T09:25:37.435Z,965.09
2018-09-13T09:26:37.412Z,965.10
2018-09-13T09:27:37.319Z,965.08
2018-09-13T09:28:37.264Z,965.07
2018-09-13T09:29:37.207Z,965.09
2018-09-13T09:30:37.147Z,965.08
2018-09-13T09:31:37.092Z,965.05
2018-09-13T09:32:37.035Z,965.05
2018-09-13T09:33:36.977Z,965.08
2018-09-13T09:34:36.971Z,965.01
2018-09-13T09:35:36.883Z,964.99
2018-09-13T09:36:36.812Z,965.02
2018-09-13T09:37:36.754Z,965.02
2018-09-13T09:38:36.692Z,965.00
2018-09-13T09:39:36.642Z,965.00
2018-09-13T09:40:36.625Z,964.95
2018-09-13T09:41:36.522Z,964.96
2018-09-13T09:42:36.468Z,964.95
2018-09-13T09:43:36.407Z,964.94
2018-09-13T09:44:36.351Z,964.92
2018-09-13T09:45:36.299Z,964.93
2018-09-13T09:46:36.237Z,964.86
2018-09-13T09:47:36.181Z,964.92
2018-09-13T09:48:36.131Z,964.86
2018-09-13T09:49:36.072Z,964.87
2018-09-13T09:50:36.068Z,964.87
2018-09-13T09:51:35.953Z,964.88
2018-09-13T09:52:35.899Z,964.87
2018-09-13T09:53:35.841Z,964.94
2018-09-13T09:54:35.781Z,964.91
2018-09-13T09:55:35.792Z,964.92
2018-09-13T09:56:35.671Z,964.94
2018-09-13T09:57:35.616Z,964.93
2018-09-13T09:58:35.558Z,964.96
2018-09-13T09:59:35.503Z,964.93
2018-09-13T10:00:35.446Z,964.94
2018-09-13T10:01:35.446Z,964.99
2018-09-13T10:02:35.334Z,964.97
2018-09-13T10:03:35.281Z,964.98
2018-09-13T10:04:35.279Z,964.97
2018-09-13T10:05:35.161Z,964.95
2018-09-13T10:06:35.112Z,964.89
2018-09-13T10:07:35.059Z,964.94
2018-09-13T10:08:34.995Z,964.92
2018-09-13T10:09:34.962Z,964.93
2018-09-13T10:10:34.883Z,964.96
2018-09-13T10:11:34.829Z,964.92
2018-09-13T10:12:34.780Z,964.90
2018-09-13T10:13:34.718Z,964.88
2018-09-13T10:14:34.660Z,964.88
2018-09-13T10:15:34.605Z,964.87
2018-09-13T10:16:34.550Z,964.87
2018-09-13T10:17:34.493Z,964.87
2018-09-13T10:18:34.464Z,964.86
2018-09-13T10:19:34.383Z,964.82
2018-09-13T10:20:34.328Z,964.83
2018-09-13T10:21:34.265Z,964.81
2018-09-13T10:22:34.211Z,964.81
2018-09-13T10:23:34.184Z,964.82
2018-09-13T10:24:34.098Z,964.81
2018-09-13T10:25:34.045Z,964.80
2018-09-13T10:26:34.520Z,964.80
2018-09-13T10:27:33.966Z,964.79
2018-09-13T10:28:33.930Z,964.78
2018-09-13T10:29:33.872Z,964.82
2018-09-13T10:30:33.766Z,964.81
2018-09-13T10:31:33.708Z,964.81
2018-09-13T10:32:33.650Z,964.82
2018-09-13T10:33:33.645Z,964.81
2018-09-13T10:34:33.540Z,964.81
2018-09-13T10:35:33.485Z,964.81
2018-09-13T10:36:33.715Z,964.78
2018-09-13T10:37:33.375Z,964.75
2018-09-13T10:38:33.318Z,964.72
2018-09-13T10:39:33.263Z,964.64
2018-09-13T10:40:33.236Z,964.69
2018-09-13T10:41:33.164Z,964.67
2018-09-13T10:42:33.098Z,964.67
2018-09-13T10:43:33.047Z,964.70
2018-09-13T10:44:32.984Z,964.68
2018-09-13T10:45:32.932Z,964.66
2018-09-13T10:46:32.880Z,964.66
2018-09-13T10:47:32.892Z,964.66
2018-09-13T10:48:32.763Z,964.64
2018-09-13T10:49:32.709Z,964.64
2018-09-13T10:50:32.691Z,964.67
2018-09-13T10:51:32.626Z,964.64
2018-09-13T10:52:32.550Z,964.63
2018-09-13T10:53:32.573Z,964.63
2018-09-13T10:54:32.431Z,964.59
2018-09-13T10:55:32.430Z,964.60
2018-09-13T10:56:32.326Z,964.60
2018-09-13T10:57:32.265Z,964.61
2018-09-13T10:58:32.212Z,964.57
2018-09-13T10:59:32.157Z,964.56
2018-09-13T11:00:32.098Z,964.54
2018-09-13T11:01:32.046Z,964.57
2018-09-13T11:02:32.027Z,964.49
2018-09-13T11:03:32.019Z,964.51
2018-09-13T11:04:32.034Z,964.54
2018-09-13T11:05:31.857Z,964.55
2018-09-13T11:06:31.765Z,964.53
2018-09-13T11:07:31.719Z,964.51
2018-09-13T11:08:31.658Z,964.52
2018-09-13T11:09:31.604Z,964.54
2018-09-13T11:10:31.556Z,964.52
2018-09-13T11:11:31.491Z,964.49
2018-09-13T11:12:31.470Z,964.52
2018-09-13T11:13:31.381Z,964.48
2018-09-13T11:14:31.326Z,964.44
2018-09-13T11:15:31.273Z,964.47
2018-09-13T11:16:31.216Z,964.47
2018-09-13T11:17:31.160Z,964.44
2018-09-13T11:18:31.104Z,964.42
2018-09-13T11:19:31.051Z,964.42
2018-09-13T11:20:30.994Z,964.41
2018-09-13T11:21:30.941Z,964.40
2018-09-13T11:22:30.884Z,964.39
2018-09-13T11:23:30.830Z,964.42
2018-09-13T11:24:30.805Z,964.42
2018-09-13T11:25:30.720Z,964.42
2018-09-13T11:26:30.662Z,964.37
2018-09-13T11:27:30.605Z,964.37
2018-09-13T11:28:30.552Z,964.35
2018-09-13T11:29:30.494Z,964.34
2018-09-13T11:30:30.445Z,964.32
2018-09-13T11:31:30.392Z,964.31
2018-09-13T11:32:30.328Z,964.28
2018-09-13T11:33:30.277Z,964.28
2018-09-13T11:34:30.217Z,964.27
2018-09-13T11:35:30.163Z,964.28
2018-09-13T11:36:30.107Z,964.24
2018-09-13T11:37:30.051Z,964.22
2018-09-13T11:38:29.996Z,964.23
2018-09-13T11:39:29.948Z,964.20
2018-09-13T11:40:29.997Z,964.21
2018-09-13T11:41:29.829Z,964.22
2018-09-13T11:42:29.774Z,964.22
2018-09-13T11:43:29.720Z,964.19
2018-09-13T11:44:29.663Z,964.16
2018-09-13T11:45:29.610Z,964.14
2018-09-13T11:46:29.555Z,964.11
2018-09-13T11:47:29.498Z,964.10
2018-09-13T11:48:29.441Z,964.12
2018-09-13T11:49:29.393Z,964.09
2018-09-13T11:50:29.332Z,964.08
2018-09-13T11:51:29.276Z,964.06
2018-09-13T11:52:29.221Z,964.05
2018-09-13T11:53:29.165Z,964.02
2018-09-13T11:54:29.446Z,964.03
2018-09-13T11:55:29.133Z,964.01
2018-09-13T11:56:29.011Z,964.01
2018-09-13T11:57:28.946Z,963.98
2018-09-13T11:58:28.892Z,964.00
2018-09-13T11:59:28.833Z,964.00
2018-09-13T12:00:28.776Z,964.00
2018-09-13T12:01:28.725Z,963.96
2018-09-13T12:02:28.667Z,964.02
2018-09-13T12:03:28.612Z,963.99
2018-09-13T12:04:28.559Z,963.98
2018-09-13T12:05:28.501Z,963.97
2018-09-13T12:06:28.452Z,964.00
2018-09-13T12:07:28.392Z,963.97
2018-09-13T12:08:28.339Z,963.94
2018-09-13T12:09:28.353Z,963.96
2018-09-13T12:10:28.224Z,963.95
2018-09-13T12:11:28.169Z,963.96
2018-09-13T12:12:28.113Z,963.90
2018-09-13T12:13:28.058Z,963.93
2018-09-13T12:14:28.004Z,963.92
2018-09-13T12:15:27.947Z,963.91
2018-09-13T12:16:27.892Z,963.88
2018-09-13T12:17:27.838Z,963.84
2018-09-13T12:18:27.793Z,963.80
2018-09-13T12:19:27.726Z,963.81
2018-09-13T12:20:27.671Z,963.75
2018-09-13T12:21:27.618Z,963.80
2018-09-13T12:22:27.564Z,963.80
2018-09-13T12:23:27.507Z,963.79
2018-09-13T12:24:27.451Z,963.82
2018-09-13T12:25:27.397Z,963.74
2018-09-13T12:26:27.343Z,963.72
2018-09-13T12:27:27.309Z,963.72